Kent, United Kingdom
Current Conditions -  °F | °C
As of 12:50 PM on Friday 19 Dec 2014 (Local Time) from EGNH Reporting Station
Few Clouds Few Clouds  
Wind Chill: 37°   Ceiling: Unl
Heat Index: 46°   Visibility: 6mi
Dew Point: 39°   Wind: 30mph
Humidity: 76%   Direction: 260°W
Pressure: 29.88"   Gusts: NA
Location:  54.35°N, 2.8°W
Report Text: EGNH 191250Z 26026KT 9999 FEW043 08/04 Q1012
Loading
Personal Weather Stations






























Interactive Weather Map New forecast layout! Learn more

10-Day Weather Forecast

Advertisements
Track Severe Weather on mobile